x

Central Aleutians 230nm Sw Dutch Harbor (46072) Wave Buoy

10:50 - Sun 5th Jul 2015 All times are UTC.

  • Sig Wave height 5.2ft
  • Peak Period 11s
  • Average Period 6s
  • Wind
    18mph, 20mph gusts
  • Sea Temp 50°f
  • Air Temp 46°f
  • Sea Pressure 989.6mb

More Historic Weather Station data

Upgrade to MSW Pro to gain access to the past 30 days of data for over 8000 Wavebouys and Weather Stations around the globe.

Join Pro

Comparision Forecast

View Surf forecast
   
dim. 07/05 10:50 5ft 11s 6s 18 20 mph 989.6mb 50f 46f
9:50 5ft 10s 7s 16 20 mph 990.2mb 50f 45f
8:50 5ft 11s 7s 16 20 mph 990.8mb 50f 46f
7:50 5ft 12s 7s 11 13 mph 992mb 50f 45f
6:50 5ft 10s 7s 11 16 mph 992.9mb 50f 45f
5:50 5ft 10s 7s 13 16 mph 993.4mb 50f 45f
4:50 5ft 11s 7s 11 16 mph 993.6mb 50f 45f
3:50 5ft 8s 8s 11 16 mph 993.9mb 50f 47f
2:50 5.5ft 11s 8s 11
mph
995mb 50f 46f
1:50 6ft 12s 8s 9 11 mph 995.5mb 50f 47f
12:50 5.5ft 11s 8s 4 7 mph 996mb 50f 47f
11:50 4.5ft 11s 7s 7
mph
996.6mb 50f 47f
10:50 4.5ft 11s 7s  -  2 mph 997.3mb 50f 48f
9:50 4.5ft 12s 8s 2 4 mph 998.2mb 50f 48f
8:50 4.5ft 12s 8s 7 9 mph 998.8mb 50f 47f
7:50 4ft 12s 7s 7 9 mph 998.9mb 51f 46f
6:50 4ft 8s 7s 7
mph
998.9mb 51f 46f
5:50 4ft 9s 7s 2 4 mph 998.9mb 51f 47f
4:50 4.5ft 8s 7s 4 7 mph 999mb 51f 48f
3:50 4.5ft 9s 7s 2 4 mph 999.4mb 51f 47f
2:50 4.5ft 8s 7s 2
mph
999.5mb 51f 46f
1:50 4.5ft 9s 7s 2 4 mph 999.9mb 51f 46f
12:50 4.5ft 9s 7s 9 11 mph 1000mb 50f 47f
sam. 07/04 11:50 4.5ft 9s 7s 7 9 mph 1000.2mb 50f 47f
10:50 4.5ft 9s 7s 7 9 mph 1000.5mb 50f 47f
9:50 5ft 9s 7s 9 11 mph 1000.3mb 50f 47f
8:50 4.5ft 10s 7s 9 11 mph 1000.4mb 50f 48f
7:50 5.5ft 8s 7s 9 11 mph 1000.6mb 50f 47f
6:50 5ft 9s 7s 11 16 mph 1000.6mb 50f 47f
5:50 5ft 9s 7s 9 11 mph 1000.6mb 50f 47f
4:50 4.5ft 9s 7s 9 11 mph 1000.6mb 50f 47f
3:50 4.5ft 9s 7s 9 11 mph 1000.4mb 50f 47f
2:50 5.5ft 9s 7s 9 11 mph 1000.1mb 49f 47f
1:50 5ft 9s 7s 9 11 mph 1000.3mb 50f 46f
12:50 5.5ft 8s 7s 4 7 mph 1000.5mb 50f 47f
11:50 5ft 9s 7s 4
mph
1000.5mb 50f 46f
10:50 5.5ft 8s 7s 7 11 mph 1000.6mb 50f 47f
9:50 5.5ft 8s 7s 7 9 mph 1000.8mb 51f 48f
8:50 5ft 8s 7s 7 9 mph 1000.7mb 50f 48f
7:50 5ft 8s 7s 4 7 mph 1000.6mb 50f 48f
6:50 5ft 8s 7s 2 4 mph 1000.5mb 49f 48f
5:50 5ft 8s 7s 2 7 mph 1000.3mb 50f 48f
4:50 5ft 8s 7s 2 4 mph 1000.4mb 49f 48f
3:50 5ft 8s 7s  -  mph 1000.5mb 49f 49f
2:50 5ft 8s 7s 2 4 mph 1000.7mb 51f 49f
1:50 5.5ft 8s 7s 2 4 mph 1000.9mb 50f 48f
12:50 6ft 8s 7s 2 4 mph 1001.2mb 51f 48f
ven. 07/03 11:50 6.5ft 9s 7s 4 7 mph 1001.6mb 50f 48f
10:50 6.5ft 8s 6s 4 7 mph 1001.9mb 50f 48f
9:50 7ft 8s 6s 4 7 mph 1002.1mb 50f 47f
8:50 7ft 9s 6s 2 4 mph 1002.3mb 50f 47f
7:50 6.5ft 8s 7s 2 4 mph 1002.4mb 49f 47f
6:50 6ft 8s 7s 4 7 mph 1002.4mb 49f 47f
5:50 7ft 8s 7s 4 7 mph 1002.4mb 49f 47f
4:50 7ft 8s 7s 4 7 mph 1002.4mb 49f 47f
3:50 7ft 8s 7s 4 7 mph 1002.5mb 49f 47f
2:50 8ft 8s 7s 7 9 mph 1002.5mb 49f 46f
1:50 8ft 9s 7s 7 9 mph 1002.6mb 49f 47f
12:50 8ft 8s 7s 7 9 mph 1002.6mb 49f 47f
11:50 9ft 8s 7s 7 9 mph 1002.8mb 49f 47f
10:50 8.5ft 9s 7s 7 9 mph 1003.1mb 49f 46f
9:50 8ft 9s 7s 9 11 mph 1003mb 49f 47f
8:50 7.5ft 8s 7s 9 11 mph 1003mb 49f 47f
7:50 8ft 8s 7s 9 11 mph 1002.8mb 49f 46f
6:50 7.5ft 8s 7s 11 13 mph 1002.7mb 49f 47f
5:50 7.5ft 8s 7s 11 13 mph 1002.7mb 49f 47f
4:50 7ft 8s 7s 9 11 mph 1002.6mb 49f 47f
3:50 8.5ft 9s 7s 11
mph
1002.6mb 49f 47f
2:50 7ft 9s 6s 11
mph
1002.8mb 49f 47f
1:50 7ft 8s 6s 9 11 mph 1003.1mb 49f 47f
12:50 8ft 9s 6s 9 11 mph 1003.3mb 49f 47f
jeu. 07/02 11:50 8.5ft 8s 6s 11
mph
1003.6mb 48f 47f
10:50 10ft 8s 6s 11 13 mph 1003.8mb 48f 47f
9:50 9.5ft 8s 6s 13 16 mph 1003.8mb 48f 46f
8:50 10ft 8s 6s 11 16 mph 1003.9mb 48f 47f
7:50 9ft 9s 7s 13 16 mph 1004mb 48f 47f
6:50 9ft 8s 6s 13 16 mph 1003.9mb 48f 46f
5:50 8.5ft 8s 6s 16 18 mph 1004mb 48f 46f
4:50 8ft 8s 6s 13 18 mph 1003.9mb 48f 46f
3:50 9ft 8s 6s 16 20 mph 1003.7mb 48f 47f
2:50 9ft 8s 6s 16 18 mph 1003.8mb 48f 47f
1:50 9ft 8s 6s 18 22 mph 1003.9mb 48f 47f
12:50 9ft 8s 6s 20 27 mph 1004.2mb 48f 47f
11:50 10ft 8s 6s 22 27 mph 1004.6mb 48f 48f
10:50 10ft 8s 6s 25 29 mph 1004.8mb 48f 48f
9:50 11ft 8s 6s 25 31 mph 1005.1mb 48f 48f
8:50 10.5ft 8s 6s 27 34 mph 1005.6mb 48f 48f
7:50 9.5ft 8s 6s 29 34 mph 1005.9mb 48f 48f
6:50 10.5ft 8s 6s 29 36 mph 1006mb 48f 48f
5:50 11ft 8s 6s 29 36 mph 1006.2mb 48f 48f
4:50 11ft 8s 6s 29 38 mph 1006.7mb 48f 48f
3:50 11ft 8s 6s 29 34 mph 1007.3mb 48f 48f
2:50 10.5ft 8s 6s 29 34 mph 1007.8mb 48f 48f
1:50 10.5ft 8s 6s 27 34 mph 1008.2mb 48f 48f
12:50 10ft 8s 6s 27 34 mph 1008.5mb 48f 48f